Cedar Rapids, IA

11:31 PM CST on March 02, 2015 (GMT -0600)
Monticello Regional | Change Station
CLOSE
Current Station
Airport
Location: Monticello,
Elevation: 850 ft
Nearby Weather Stations
Active Advisory: Winter Weather Advisory

Elev 850 ft 42.22 °N, 91.16 °W | Updated 16 minutes ago

Partly Cloudy
Partly Cloudy
25 °F
Feels Like 15 °F
N
9
Wind Variable Wind from SE

Today
High -- | Low -- °F
--% Chance of Precip.
Yesterday
High -- | Low -- °F
Precip. -- in
6:40 AM 5:57 PM
Waxing Gibbous, 94% visible
Pressure 30.15 in
Visibility 10.0 miles
Clouds Overcast 6500 ft
Windchill 15 °F
Dew Point 19 °F
Humidity 80%
Rainfall 0.00 in
Snow Depth Not available.
UV 0 out of 12
Pollen .50 out of 12
Air Quality Not available.
Flu Activity Not available.
METAR KMXO 030515Z AUTO 13008KT 10SM OVC065 M04/M07 A3015 RMK AO2

More Conditions Fewer Conditions

Pressure 30.15 in
Visibility 10.0 miles
Clouds Overcast 6500 ft
Windchill 15 °F
Dew Point 19 °F
Humidity 80%
Rainfall 0.00 in
Snow Depth Not available.
UV 0 out of 12
Pollen .50 out of 12
Air Quality Not available.
Flu Activity Not available.
METAR KMXO 030515Z AUTO 13008KT 10SM OVC065 M04/M07 A3015 RMK AO2

More Conditions Fewer Conditions

10-Day Weather Forecast

Almanac

Astronomy

Mar. 02, 2015 Rise Set
Actual Time
Civil Twilight
Nautical Twilight
Astronomical Twilight
Moon
Length of Visible Light
Length of Day
Tomorrow will be .
, % of the Moon is Illuminated

Today's Extremes

State Highs State Lows

Community

WunderPhotos

Upload Photos

1,802,066 photos uploaded!

WunderBlogs® & News

Nearby

Air Quality

  Air Quality AQ Index Pollutant
Not available.

Snow Depth

Station Depth Elevation

Earthquake Activity

City Distance Mag. Time & Date
Minimum magnitude displayed is 2.5.

Coastal Water Temperatures

Place Temperature

Nearby Weather Stations

Winter Weather Advisory
Statement as of 10:46 PM CST on March 02, 2015

... Winter Weather Advisory in effect from 3 am to noon CST
Tuesday...

The National Weather Service in Quad Cities has issued a Winter
Weather Advisory for snow... sleet or light freezing rain... which
is in effect from 3 am to noon CST Tuesday.

* Timing... late tonight through Tuesday morning.

* Snow accumulations... around 1 inch.

* Ice accumulations... around a trace mainly near Highway 30.

* Temperatures... rising into the upper 20s.

* Impacts... the sleet or snow may result in hazardous travel late
tonight through the morning commute.

Precautionary/preparedness actions...

A Winter Weather Advisory means that periods of snow... sleet... or
freezing rain will cause travel difficulties. Be prepared for
slippery roads and limited visibilities... and be careful while
driving.